Time;durP1;ratioP1;P1;durP2;ratioP2;P2;SDS_P1;SDS_P2;PMS_P1;PMS_P2;Temp;Humidity;BMP_temperature;BMP_pressure;BME280_temperature;BME280_humidity;BME280_pressure;Samples;Min_cycle;Max_cycle;Signal;HPM_P1;HPM_P2
2023/08/02 00:00:21;;;;;;;4.43;2.20;;;;;;;15.87;100.00;98060.78;5134019;27;20193;-56
2023/08/02 00:03:08;;;;;;;6.33;2.33;;;;;;;15.61;100.00;98056.28;5133971;27;20196;-56
2023/08/02 00:05:56;;;;;;;6.00;2.07;;;;;;;15.52;100.00;98070.53;5132552;27;20253;-56
2023/08/02 00:08:43;;;;;;;7.40;2.37;;;;;;;15.39;100.00;98068.28;5133771;28;20251;-56
2023/08/02 00:11:30;;;;;;;5.20;2.40;;;;;;;15.33;100.00;98071.56;5133861;27;20234;-56
2023/08/02 00:14:16;;;;;;;7.03;2.53;;;;;;;15.35;100.00;98079.44;5133821;27;20204;-56
2023/08/02 00:17:05;;;;;;;6.13;2.60;;;;;;;15.37;100.00;98072.13;5133456;27;20217;-57
2023/08/02 00:19:52;;;;;;;6.37;2.60;;;;;;;15.43;100.00;98072.31;5132394;27;20320;-56
2023/08/02 00:22:39;;;;;;;7.50;2.80;;;;;;;15.42;100.00;98069.78;5133828;28;20200;-56
2023/08/02 00:25:26;;;;;;;6.53;2.50;;;;;;;15.40;100.00;98074.47;5133698;27;20251;-56
2023/08/02 00:28:12;;;;;;;8.33;3.50;;;;;;;15.37;100.00;98077.44;5133713;28;20206;-56
2023/08/02 00:30:59;;;;;;;5.53;3.60;;;;;;;15.36;100.00;98068.59;5133741;28;20197;-56
2023/08/02 00:33:47;;;;;;;5.67;3.13;;;;;;;15.48;100.00;98057.69;5133558;28;20208;-56
2023/08/02 00:36:34;;;;;;;8.40;3.17;;;;;;;15.48;100.00;98066.53;5132126;28;20267;-56
2023/08/02 00:39:21;;;;;;;8.43;3.17;;;;;;;15.60;100.00;98062.63;5133639;27;20239;-56
2023/08/02 00:42:08;;;;;;;6.30;3.00;;;;;;;15.63;100.00;98066.81;5132513;27;20197;-57
2023/08/02 00:44:55;;;;;;;7.27;3.50;;;;;;;15.61;100.00;98074.13;5132417;27;20269;-56
2023/08/02 00:47:42;;;;;;;6.03;3.53;;;;;;;15.56;100.00;98074.59;5132466;28;20189;-56
2023/08/02 00:50:34;;;;;;;7.67;3.30;;;;;;;15.61;100.00;98077.66;5131073;27;20193;-56
2023/08/02 00:53:21;;;;;;;5.03;3.30;;;;;;;15.62;100.00;98081.97;5132442;28;20211;-56
2023/08/02 00:56:08;;;;;;;7.73;3.60;;;;;;;15.67;100.00;98082.38;5132172;27;20213;-56
2023/08/02 00:58:55;;;;;;;7.57;3.77;;;;;;;15.69;100.00;98084.88;5135763;27;20193;-56
2023/08/02 01:01:42;;;;;;;5.13;2.83;;;;;;;15.72;100.00;98088.06;5136269;27;20193;-57
2023/08/02 01:04:29;;;;;;;6.80;3.43;;;;;;;15.68;100.00;98056.50;5134922;27;20197;-56
2023/08/02 01:07:24;;;;;;;6.77;3.20;;;;;;;15.63;100.00;98049.00;5136952;27;20181;-56
2023/08/02 01:10:18;;;;;;;4.57;2.70;;;;;;;15.54;100.00;98054.38;5136039;27;20259;-57
2023/08/02 01:13:07;;;;;;;6.83;3.60;;;;;;;15.54;100.00;98057.91;5136979;27;20197;-56
2023/08/02 01:15:54;;;;;;;8.37;3.10;;;;;;;15.56;100.00;98057.75;5136759;27;20213;-56
2023/08/02 01:18:40;;;;;;;5.97;3.20;;;;;;;15.54;100.00;98057.03;5136902;27;20204;-56
2023/08/02 01:21:28;;;;;;;8.37;3.40;;;;;;;15.55;100.00;98067.56;5135627;27;20193;-56
2023/08/02 01:24:16;;;;;;;7.43;3.30;;;;;;;15.52;100.00;98070.53;5136806;27;20268;-56
2023/08/02 01:27:09;;;;;;;7.33;3.17;;;;;;;15.51;100.00;98050.19;5136630;27;20236;-56
2023/08/02 01:29:59;;;;;;;7.33;3.40;;;;;;;15.62;100.00;98051.78;5135491;27;20258;-56
2023/08/02 01:32:46;;;;;;;9.67;3.90;;;;;;;15.45;100.00;98045.50;5135603;27;20197;-56
2023/08/02 01:35:35;;;;;;;8.53;3.40;;;;;;;15.51;100.00;98042.19;5134957;27;20274;-56
2023/08/02 01:38:23;;;;;;;5.53;3.57;;;;;;;15.48;100.00;98037.16;5136588;27;20197;-56
2023/08/02 01:41:10;;;;;;;8.73;3.40;;;;;;;15.54;100.00;98030.34;5136546;27;20193;-56
2023/08/02 01:43:57;;;;;;;9.30;3.67;;;;;;;15.49;100.00;98033.50;5136377;27;20193;-56
2023/08/02 01:46:44;;;;;;;7.90;3.50;;;;;;;15.42;100.00;98032.44;5136303;27;20308;-56
2023/08/02 01:49:31;;;;;;;6.53;3.37;;;;;;;15.51;100.00;98036.00;5135047;27;20205;-56
2023/08/02 01:52:18;;;;;;;12.47;3.77;;;;;;;15.49;100.00;98035.34;5136279;27;20216;-56
2023/08/02 01:55:07;;;;;;;8.80;3.67;;;;;;;15.42;100.00;98033.28;5135193;27;20198;-56
2023/08/02 01:57:54;;;;;;;6.10;3.40;;;;;;;15.49;100.00;98025.50;5134765;27;20733;-56
2023/08/02 02:00:41;;;;;;;6.13;3.37;;;;;;;15.51;100.00;98020.00;5135136;27;20220;-56
2023/08/02 02:03:28;;;;;;;9.97;3.60;;;;;;;15.54;100.00;98017.88;5134997;27;20193;-56
2023/08/02 02:06:16;;;;;;;7.77;3.93;;;;;;;15.58;100.00;98010.38;5134674;27;20189;-56
2023/08/02 02:09:03;;;;;;;10.20;4.03;;;;;;;15.54;100.00;98009.84;5134443;27;20202;-56
2023/08/02 02:11:51;;;;;;;7.10;4.07;;;;;;;15.58;100.00;97995.19;5135867;27;20198;-56
2023/08/02 02:14:38;;;;;;;9.47;4.40;;;;;;;15.48;100.00;98005.13;5135833;27;20435;-56
2023/08/02 02:17:25;;;;;;;9.47;5.00;;;;;;;15.52;100.00;97995.81;5135515;27;20228;-56
2023/08/02 02:20:13;;;;;;;7.70;4.37;;;;;;;15.55;100.00;97995.50;5133219;27;20268;-56
2023/08/02 02:22:59;;;;;;;8.37;4.70;;;;;;;15.56;100.00;97985.69;5134635;27;20232;-57
2023/08/02 02:25:46;;;;;;;6.93;4.57;;;;;;;15.57;100.00;97992.69;5135591;27;20181;-57
2023/08/02 02:28:35;;;;;;;9.77;4.67;;;;;;;15.58;100.00;97987.19;5134471;27;20201;-56
2023/08/02 02:31:22;;;;;;;10.57;4.90;;;;;;;15.58;100.00;97987.19;5135507;27;20194;-56
2023/08/02 02:34:10;;;;;;;13.37;4.93;;;;;;;15.61;100.00;97992.22;5134292;27;20312;-56
2023/08/02 02:36:56;;;;;;;12.20;5.93;;;;;;;15.63;100.00;97989.41;5135089;27;20372;-57
2023/08/02 02:39:44;;;;;;;10.80;5.10;;;;;;;15.61;100.00;97992.22;5135308;27;20185;-56
2023/08/02 02:42:31;;;;;;;10.50;5.27;;;;;;;15.64;100.00;97988.44;5135318;27;20208;-56
2023/08/02 02:45:20;;;;;;;14.97;5.20;;;;;;;15.48;100.00;97978.47;5135080;27;20193;-56
2023/08/02 02:48:07;;;;;;;10.00;5.57;;;;;;;15.51;100.00;97991.47;5135145;27;20190;-56
2023/08/02 02:50:54;;;;;;;11.00;5.97;;;;;;;15.50;100.00;97987.13;5133830;27;20197;-56
2023/08/02 02:53:41;;;;;;;8.60;5.20;;;;;;;15.45;100.00;97986.78;5134885;27;20197;-56
2023/08/02 02:56:28;;;;;;;12.83;5.50;;;;;;;15.45;100.00;97979.63;5134947;27;20190;-56
2023/08/02 02:59:15;;;;;;;8.30;5.23;;;;;;;15.52;100.00;97973.63;5134795;27;20247;-56
2023/08/02 03:02:04;;;;;;;13.70;5.77;;;;;;;15.52;100.00;97977.13;5134786;27;20193;-56
2023/08/02 03:04:50;;;;;;;12.10;5.57;;;;;;;15.55;100.00;97954.66;5133493;27;20223;-56
2023/08/02 03:07:37;;;;;;;12.80;5.87;;;;;;;15.55;100.00;97951.97;5134846;27;20185;-56
2023/08/02 03:10:25;;;;;;;8.50;5.10;;;;;;;15.63;100.00;97949.34;5134418;27;20193;-57
2023/08/02 03:13:11;;;;;;;12.73;5.40;;;;;;;15.66;100.00;97949.88;5134569;27;20185;-57
2023/08/02 03:15:58;;;;;;;14.27;5.47;;;;;;;15.56;100.00;97948.31;5134573;27;20193;-56
2023/08/02 03:18:48;;;;;;;9.73;5.07;;;;;;;15.62;100.00;97945.03;5133998;27;20236;-56
2023/08/02 03:21:35;;;;;;;10.37;5.37;;;;;;;15.55;100.00;97930.63;5134522;27;20277;-56
2023/08/02 03:24:22;;;;;;;11.50;5.27;;;;;;;15.62;100.00;97943.19;5134425;27;20232;-56
2023/08/02 03:27:08;;;;;;;12.57;5.40;;;;;;;15.45;100.00;97923.56;5134200;27;20201;-56
2023/08/02 03:29:56;;;;;;;9.57;4.97;;;;;;;15.47;100.00;97923.41;5134140;27;20721;-56
2023/08/02 03:32:42;;;;;;;6.87;4.60;;;;;;;15.50;100.00;97919.59;5134298;27;20215;-56
2023/08/02 03:35:31;;;;;;;8.87;4.77;;;;;;;15.53;100.00;97927.25;5132531;27;20228;-56
2023/08/02 03:38:17;;;;;;;10.07;5.30;;;;;;;15.40;100.00;97914.38;5133965;27;20208;-56
2023/08/02 03:41:04;;;;;;;9.57;5.10;;;;;;;15.41;100.00;97908.03;5134426;27;20197;-56
2023/08/02 03:43:51;;;;;;;11.23;5.07;;;;;;;15.45;100.00;97896.06;5134031;27;20213;-56
2023/08/02 03:46:38;;;;;;;7.30;4.90;;;;;;;15.50;100.00;97891.06;5134143;27;20205;-56
2023/08/02 03:49:25;;;;;;;11.53;5.67;;;;;;;15.52;100.00;97894.41;5132684;27;20305;-56
2023/08/02 03:52:14;;;;;;;9.97;5.03;;;;;;;15.44;100.00;97875.69;5133947;27;20194;-57
2023/08/02 03:55:01;;;;;;;10.70;5.70;;;;;;;15.39;100.00;97888.69;5133953;27;20198;-56
2023/08/02 03:57:48;;;;;;;8.47;4.97;;;;;;;15.58;100.00;97895.59;5133858;27;20209;-56
2023/08/02 04:00:35;;;;;;;10.13;4.70;;;;;;;15.45;100.00;97883.56;5133702;27;20196;-57
2023/08/02 04:03:22;;;;;;;9.33;5.03;;;;;;;15.42;100.00;97875.84;5133880;27;20263;-56
2023/08/02 04:06:09;;;;;;;10.13;4.90;;;;;;;15.33;100.00;97875.97;5132585;27;20268;-56
2023/08/02 04:08:57;;;;;;;10.13;5.37;;;;;;;15.38;100.00;97882.50;5133656;27;20198;-56
2023/08/02 04:11:44;;;;;;;9.40;5.07;;;;;;;15.39;100.00;97888.69;5133792;27;20194;-56
2023/08/02 04:14:31;;;;;;;7.13;4.67;;;;;;;15.35;100.00;97892.69;5133788;27;20189;-56
2023/08/02 04:17:18;;;;;;;11.67;4.77;;;;;;;15.41;100.00;97886.69;5133595;27;20373;-56
2023/08/02 04:20:06;;;;;;;9.03;4.63;;;;;;;15.46;100.00;97881.72;5132396;27;20200;-57
2023/08/02 04:22:53;;;;;;;8.80;4.77;;;;;;;15.53;100.00;97876.56;5133793;27;20679;-57
2023/08/02 04:25:41;;;;;;;6.70;4.40;;;;;;;15.57;100.00;97876.09;5133298;27;20198;-57
2023/08/02 04:28:28;;;;;;;8.33;4.17;;;;;;;15.51;100.00;97871.38;5133556;28;20197;-57
2023/08/02 04:31:16;;;;;;;9.83;4.60;;;;;;;15.56;100.00;97858.41;5133523;27;20360;-58
2023/08/02 04:34:03;;;;;;;13.13;4.27;;;;;;;15.48;100.00;97861.03;5136397;27;20403;-57
2023/08/02 04:36:49;;;;;;;6.23;4.30;;;;;;;15.62;100.00;97830.25;5137479;27;20223;-57
2023/08/02 04:39:36;;;;;;;9.13;4.50;;;;;;;15.65;100.00;97820.09;5137630;27;20185;-57
2023/08/02 04:42:26;;;;;;;11.43;4.47;;;;;;;15.58;100.00;97795.00;5137099;27;20208;-57
2023/08/02 04:45:13;;;;;;;8.33;4.20;;;;;;;15.57;100.00;97798.69;5137632;27;20243;-57
2023/08/02 04:48:00;;;;;;;8.33;4.03;;;;;;;15.59;100.00;97814.53;5137274;27;20193;-57
2023/08/02 04:50:47;;;;;;;7.07;3.97;;;;;;;15.44;100.00;97811.63;5136094;27;20337;-57
2023/08/02 04:53:34;;;;;;;10.40;4.13;;;;;;;15.57;100.00;97819.22;5136935;27;20197;-57
2023/08/02 04:56:21;;;;;;;8.63;4.07;;;;;;;15.72;100.00;97814.91;5137318;27;20194;-57
2023/08/02 04:59:10;;;;;;;6.77;4.23;;;;;;;15.59;100.00;97826.03;5136841;27;20213;-57
2023/08/02 05:01:57;;;;;;;10.50;4.13;;;;;;;15.47;100.00;97822.00;5136850;27;20365;-57
2023/08/02 05:04:44;;;;;;;7.50;3.90;;;;;;;15.46;100.00;97815.00;5135831;27;20264;-57
2023/08/02 05:07:32;;;;;;;8.07;4.13;;;;;;;15.52;100.00;97818.84;5136319;27;20213;-57
2023/08/02 05:10:19;;;;;;;8.43;3.87;;;;;;;15.58;100.00;97812.88;5137100;27;20208;-57
2023/08/02 05:13:06;;;;;;;12.10;4.43;;;;;;;15.59;100.00;97802.03;5136712;27;20190;-57
2023/08/02 05:15:55;;;;;;;6.80;3.70;;;;;;;15.82;100.00;97809.44;5136816;27;20193;-58
2023/08/02 05:18:42;;;;;;;9.47;4.33;;;;;;;15.87;100.00;97805.28;5135207;27;20276;-58
2023/08/02 05:21:29;;;;;;;9.03;3.93;;;;;;;15.76;100.00;97794.09;5136259;27;20208;-57
2023/08/02 05:24:16;;;;;;;9.67;4.50;;;;;;;15.67;100.00;97788.72;5136835;27;20197;-57
2023/08/02 05:27:03;;;;;;;7.93;4.40;;;;;;;15.61;100.00;97776.03;5136946;27;20272;-57
2023/08/02 05:29:52;;;;;;;7.07;3.87;;;;;;;15.63;100.00;97774.06;5136823;27;20186;-57
2023/08/02 05:32:40;;;;;;;7.23;3.80;;;;;;;15.62;100.00;97760.84;5136715;27;20290;-57
2023/08/02 05:35:29;;;;;;;7.40;4.13;;;;;;;15.68;100.00;97760.19;5134723;27;20225;-57
2023/08/02 05:38:16;;;;;;;8.43;4.07;;;;;;;15.71;100.00;97757.19;5136409;27;20235;-58
2023/08/02 05:41:03;;;;;;;8.03;4.57;;;;;;;15.80;100.00;97750.03;5135774;27;20266;-57
2023/08/02 05:43:50;;;;;;;7.77;4.20;;;;;;;15.83;100.00;97745.22;5134897;27;20307;-57
2023/08/02 05:46:37;;;;;;;7.57;4.03;;;;;;;15.70;100.00;97744.84;5136021;27;20279;-58
2023/08/02 05:49:25;;;;;;;7.23;4.07;;;;;;;15.72;100.00;97740.19;5135042;27;20198;-57
2023/08/02 05:52:12;;;;;;;5.83;4.07;;;;;;;15.65;100.00;97732.00;5133634;27;20256;-57
2023/08/02 05:54:59;;;;;;;9.13;4.40;;;;;;;15.72;100.00;97725.00;5136195;27;20268;-58
2023/08/02 05:57:45;;;;;;;12.13;4.00;;;;;;;15.77;100.00;97727.19;5133274;27;20189;-56
2023/08/02 06:00:32;;;;;;;8.40;4.10;;;;;;;15.75;100.00;97715.84;5136205;27;20304;-57
2023/08/02 06:03:19;;;;;;;7.57;4.10;;;;;;;15.85;100.00;97707.66;5135079;27;20188;-57
2023/08/02 06:06:08;;;;;;;8.77;3.90;;;;;;;15.79;100.00;97701.13;5134534;27;20197;-57
2023/08/02 06:08:54;;;;;;;6.07;3.43;;;;;;;15.86;100.00;97695.97;5135933;27;20186;-57
2023/08/02 06:11:41;;;;;;;6.93;3.80;;;;;;;15.90;100.00;97686.63;5135862;27;20197;-57
2023/08/02 06:14:28;;;;;;;11.20;4.13;;;;;;;15.86;100.00;97670.13;5135963;27;20293;-57
2023/08/02 06:17:15;;;;;;;9.70;3.80;;;;;;;15.89;100.00;97663.59;5135525;27;20612;-57
2023/08/02 06:20:02;;;;;;;8.03;3.50;;;;;;;16.07;100.00;97663.41;5134089;27;20242;-57
2023/08/02 06:22:50;;;;;;;6.60;3.67;;;;;;;16.11;100.00;97673.56;5135671;27;20188;-58
2023/08/02 06:25:37;;;;;;;5.13;3.53;;;;;;;16.07;100.00;97669.59;5135859;27;20189;-57
2023/08/02 06:28:24;;;;;;;7.83;4.00;;;;;;;16.09;100.00;97669.41;5135601;27;20189;-57
2023/08/02 06:31:11;;;;;;;13.13;3.50;;;;;;;16.09;100.00;97662.22;5135441;27;20228;-58
2023/08/02 06:33:58;;;;;;;9.63;4.33;;;;;;;16.16;100.00;97662.38;5134851;27;20197;-57
2023/08/02 06:36:45;;;;;;;5.90;3.07;;;;;;;16.27;100.00;97648.66;5135252;27;20193;-57
2023/08/02 06:39:34;;;;;;;5.13;3.13;;;;;;;16.23;100.00;97645.50;5135148;27;20209;-57
2023/08/02 06:42:21;;;;;;;7.00;4.03;;;;;;;16.43;100.00;97637.09;5135234;27;20226;-57
2023/08/02 06:45:09;;;;;;;9.27;3.60;;;;;;;16.33;100.00;97626.63;5134122;27;20197;-57
2023/08/02 06:47:55;;;;;;;7.77;3.20;;;;;;;16.50;100.00;97644.28;5135126;27;20197;-58
2023/08/02 06:50:42;;;;;;;7.27;3.70;;;;;;;16.48;100.00;97626.72;5133822;27;20304;-57
2023/08/02 06:53:33;;;;;;;6.50;3.57;;;;;;;16.54;100.00;97618.00;5135018;27;20194;-57
2023/08/02 06:56:21;;;;;;;5.83;3.40;;;;;;;16.69;100.00;97599.41;5134662;27;20194;-57
2023/08/02 06:59:08;;;;;;;10.17;3.87;;;;;;;16.65;100.00;97588.22;5134679;27;20293;-57
2023/08/02 07:01:56;;;;;;;8.27;3.17;;;;;;;16.58;100.00;97581.91;5134705;27;20193;-57
2023/08/02 07:04:43;;;;;;;7.27;3.73;;;;;;;16.54;100.00;97565.38;5133651;27;20193;-57
2023/08/02 07:07:29;;;;;;;6.97;3.10;;;;;;;16.63;100.00;97584.91;5134534;27;20219;-57
2023/08/02 07:10:17;;;;;;;5.50;3.30;;;;;;;16.70;100.00;97598.44;5134513;27;20181;-57
2023/08/02 07:13:05;;;;;;;6.77;3.20;;;;;;;16.50;100.00;97593.50;5134674;27;20197;-57
2023/08/02 07:15:52;;;;;;;7.67;3.63;;;;;;;16.30;100.00;97600.22;5134653;27;20309;-57
2023/08/02 07:18:39;;;;;;;6.30;3.67;;;;;;;16.46;100.00;97599.34;5134302;27;20299;-57
2023/08/02 07:21:26;;;;;;;6.13;3.33;;;;;;;16.33;100.00;97596.41;5134001;27;20190;-57
2023/08/02 07:24:12;;;;;;;6.80;3.83;;;;;;;16.16;100.00;97572.41;5134494;27;20189;-57
2023/08/02 07:26:59;;;;;;;9.13;3.50;;;;;;;16.24;100.00;97585.72;5134215;27;20267;-57
2023/08/02 07:29:51;;;;;;;6.17;3.60;;;;;;;16.28;100.00;97580.88;5134461;27;20203;-57
2023/08/02 07:32:38;;;;;;;6.33;3.70;;;;;;;16.16;100.00;97580.41;5133166;27;20193;-57
2023/08/02 07:35:25;;;;;;;8.67;4.17;;;;;;;16.10;100.00;97586.44;5131851;27;20255;-57
2023/08/02 07:38:12;;;;;;;7.83;3.70;;;;;;;15.98;100.00;97579.78;5134300;27;20193;-56
2023/08/02 07:41:03;;;;;;;8.13;3.70;;;;;;;15.83;100.00;97585.03;5134382;27;20185;-57
2023/08/02 07:43:50;;;;;;;9.63;4.10;;;;;;;15.88;100.00;97592.50;5133027;27;20198;-57
2023/08/02 07:46:38;;;;;;;9.67;4.90;;;;;;;15.87;100.00;97593.50;5134181;27;20194;-57
2023/08/02 07:49:25;;;;;;;7.27;4.13;;;;;;;16.05;100.00;97594.13;5132853;27;20248;-57
2023/08/02 07:52:12;;;;;;;7.17;4.37;;;;;;;15.94;100.00;97591.84;5133799;27;20193;-58
2023/08/02 07:54:59;;;;;;;10.47;4.97;;;;;;;15.98;100.00;97590.47;5134053;27;20194;-58
2023/08/02 07:57:46;;;;;;;7.33;4.37;;;;;;;15.91;100.00;97586.81;5133993;27;20197;-58
2023/08/02 08:00:33;;;;;;;7.50;4.57;;;;;;;15.93;100.00;97596.34;5133071;27;20229;-57
2023/08/02 08:03:21;;;;;;;6.60;3.90;;;;;;;16.07;100.00;97583.28;5134024;27;20250;-57
2023/08/02 08:06:13;;;;;;;8.93;4.90;;;;;;;16.03;100.00;97574.78;5132580;27;20271;-57
2023/08/02 08:08:59;;;;;;;8.67;4.50;;;;;;;16.01;100.00;97582.13;5132210;27;20200;-57
2023/08/02 08:11:46;;;;;;;6.77;4.83;;;;;;;16.03;100.00;97570.28;5133581;27;20189;-57
2023/08/02 08:14:34;;;;;;;5.57;3.80;;;;;;;16.29;100.00;97577.19;5133713;27;20209;-57
2023/08/02 08:17:21;;;;;;;6.53;4.40;;;;;;;16.23;100.00;97570.72;5133463;28;20320;-57
2023/08/02 08:20:11;;;;;;;4.60;3.57;;;;;;;16.28;100.00;97565.66;5132316;28;20342;-57
2023/08/02 08:22:58;;;;;;;4.13;3.67;;;;;;;16.24;100.00;97561.69;5133371;27;20315;-57
2023/08/02 08:25:45;;;;;;;5.63;3.90;;;;;;;16.43;100.00;97568.47;5133694;28;20190;-57
2023/08/02 08:28:32;;;;;;;4.50;3.93;;;;;;;16.33;100.00;97553.66;5133176;27;20213;-57
2023/08/02 08:31:18;;;;;;;6.77;4.40;;;;;;;16.28;100.00;97551.47;5133509;27;20269;-57
2023/08/02 08:34:06;;;;;;;7.37;4.27;;;;;;;16.33;100.00;97532.28;5132173;27;20258;-58
2023/08/02 08:36:54;;;;;;;6.97;4.60;;;;;;;16.22;100.00;97538.84;5133572;27;20197;-57
2023/08/02 08:39:41;;;;;;;5.87;4.33;;;;;;;16.36;100.00;97514.03;5133323;27;20218;-57
2023/08/02 08:42:28;;;;;;;5.83;4.53;;;;;;;16.21;100.00;97511.28;5133367;27;20208;-57
2023/08/02 08:45:18;;;;;;;6.40;4.30;;;;;;;16.24;100.00;97502.09;5133385;28;20189;-58
2023/08/02 08:48:05;;;;;;;6.33;4.00;;;;;;;16.38;100.00;97514.69;5133287;27;20214;-58
2023/08/02 08:50:55;;;;;;;6.63;4.27;;;;;;;16.35;100.00;97495.50;5132044;27;20193;-58
2023/08/02 08:53:45;;;;;;;5.13;4.17;;;;;;;16.34;100.00;97481.31;5133354;27;20182;-58
2023/08/02 08:56:36;;;;;;;6.67;4.50;;;;;;;16.30;100.00;97475.47;5132693;27;20256;-58
2023/08/02 08:59:25;;;;;;;5.17;4.07;;;;;;;16.32;100.00;97472.66;5133177;27;20193;-58
2023/08/02 09:02:13;;;;;;;5.40;3.83;;;;;;;16.35;100.00;97479.47;5133390;28;20257;-57
2023/08/02 09:05:03;;;;;;;5.83;4.10;;;;;;;16.18;100.00;97478.72;5131963;27;20256;-57
2023/08/02 09:07:58;;;;;;;5.83;4.57;;;;;;;16.20;100.00;97479.38;5133058;28;20185;-57
2023/08/02 09:10:46;;;;;;;5.90;4.70;;;;;;;16.13;100.00;97473.09;5133309;27;20193;-57
2023/08/02 09:13:33;;;;;;;6.17;4.63;;;;;;;16.01;100.00;97470.78;5133218;27;20190;-57
2023/08/02 09:16:20;;;;;;;5.73;4.87;;;;;;;16.08;100.00;97486.94;5132106;27;20197;-58
2023/08/02 09:19:22;;;;;;;6.73;4.97;;;;;;;16.00;100.00;97479.81;5132165;27;20185;-58
2023/08/02 09:22:10;;;;;;;7.20;4.60;;;;;;;16.05;100.00;97468.63;5136792;27;20675;-57
2023/08/02 09:24:57;;;;;;;7.73;4.30;;;;;;;15.90;100.00;97481.84;5136722;27;20213;-57
2023/08/02 09:27:47;;;;;;;5.17;4.20;;;;;;;16.00;100.00;97466.44;5136689;27;20214;-57
2023/08/02 09:30:34;;;;;;;5.30;3.90;;;;;;;16.09;100.00;97475.25;5136476;27;20188;-57
2023/08/02 09:33:21;;;;;;;3.80;3.30;;;;;;;16.07;100.00;97469.28;5136610;27;20205;-57
2023/08/02 09:36:08;;;;;;;4.50;3.77;;;;;;;16.12;100.00;97471.44;5133332;27;20328;-58
2023/08/02 09:39:01;;;;;;;3.90;3.30;;;;;;;16.19;100.00;97462.53;5135299;27;20208;-58
2023/08/02 09:41:48;;;;;;;6.20;3.13;;;;;;;16.36;100.00;97473.13;5136215;27;20233;-57
2023/08/02 09:44:54;;;;;;;7.27;3.60;;;;;;;16.36;100.00;97457.94;5136098;27;20206;-58
2023/08/02 09:47:51;;;;;;;4.80;3.17;;;;;;;16.49;100.00;97452.81;5136116;27;20193;-58
2023/08/02 09:50:53;;;;;;;3.50;3.10;;;;;;;16.59;100.00;97471.28;5134924;27;20304;-58
2023/08/02 09:53:40;;;;;;;3.60;3.00;;;;;;;16.62;100.00;97488.84;5136048;27;20190;-58
2023/08/02 09:56:27;;;;;;;6.63;3.07;;;;;;;16.37;100.00;97467.59;5136001;27;20248;-58
2023/08/02 09:59:15;;;;;;;3.40;3.10;;;;;;;16.39;100.00;97470.91;5135670;27;20189;-58
2023/08/02 10:02:05;;;;;;;4.17;3.37;;;;;;;16.40;100.00;97458.38;5135742;27;20217;-58
2023/08/02 10:04:56;;;;;;;4.83;3.67;;;;;;;16.37;100.00;97464.94;5134379;27;20201;-58
2023/08/02 10:07:46;;;;;;;3.70;3.00;;;;;;;16.39;100.00;97457.56;5135242;27;20247;-57
2023/08/02 10:10:39;;;;;;;3.40;3.10;;;;;;;16.39;100.00;97454.88;5135902;27;20182;-58
2023/08/02 10:13:27;;;;;;;7.17;4.20;;;;;;;16.50;100.00;97438.47;5135880;27;20247;-57
2023/08/02 10:16:16;;;;;;;3.17;2.80;;;;;;;16.40;100.00;97445.03;5135826;27;20327;-58
2023/08/02 10:19:05;;;;;;;6.30;3.63;;;;;;;16.48;100.00;97444.97;5134309;27;20315;-57
2023/08/02 10:21:53;;;;;;;9.20;8.07;;;;;;;16.52;100.00;97443.63;5135468;27;20217;-57
2023/08/02 10:24:42;;;;;;;6.83;5.30;;;;;;;16.44;100.00;97441.84;5135284;27;20201;-58
2023/08/02 10:27:30;;;;;;;39.33;21.13;;;;;;;16.39;100.00;97441.53;5135493;27;20206;-57
2023/08/02 10:30:18;;;;;;;8.47;6.00;;;;;;;16.47;100.00;97420.09;5134913;27;20185;-58
2023/08/02 10:33:11;;;;;;;5.17;4.00;;;;;;;16.48;100.00;97436.97;5134830;27;20201;-58
2023/08/02 10:36:02;;;;;;;5.13;4.63;;;;;;;16.59;100.00;97440.03;5132767;27;20339;-58
2023/08/02 10:38:52;;;;;;;5.70;4.73;;;;;;;16.44;100.00;97428.47;5135272;27;20653;-58
2023/08/02 10:41:57;;;;;;;5.77;4.43;;;;;;;16.54;100.00;97430.91;5134725;27;20221;-58
2023/08/02 10:45:14;;;;;;;6.73;4.60;;;;;;;16.53;100.00;97415.91;5135293;27;20201;-58
2023/08/02 10:48:23;;;;;;;4.93;3.53;;;;;;;16.56;100.00;97413.69;5135146;27;20266;-58
2023/08/02 10:51:31;;;;;;;4.70;3.77;;;;;;;16.65;100.00;97397.59;5133500;27;20186;-58
2023/08/02 10:54:19;;;;;;;5.03;3.67;;;;;;;16.58;100.00;97395.63;5134981;27;20201;-58
2023/08/02 10:57:14;;;;;;;5.27;3.63;;;;;;;16.62;100.00;97376.56;5135153;27;20198;-58
2023/08/02 11:00:01;;;;;;;4.83;4.37;;;;;;;16.56;100.00;97376.28;5134424;27;20303;-56
2023/08/02 11:02:49;;;;;;;4.33;3.70;;;;;;;16.65;100.00;97376.19;5134815;27;20258;-58
2023/08/02 11:05:41;;;;;;;5.27;4.00;;;;;;;16.78;100.00;97369.25;5133494;27;20198;-58
2023/08/02 11:08:30;;;;;;;6.33;3.97;;;;;;;16.95;100.00;97364.59;5134504;27;20219;-58
2023/08/02 11:11:29;;;;;;;4.30;3.60;;;;;;;17.15;100.00;97365.72;5134697;27;20181;-57
2023/08/02 11:14:26;;;;;;;0.50;0.50;;;;;;;17.29;100.00;97376.63;5133181;27;20193;-58
2023/08/02 11:17:17;;;;;;;0.00;0.00;;;;;;;17.11;100.00;97371.63;5133529;27;20201;-58
2023/08/02 11:20:24;;;;;;;0.00;0.00;;;;;;;17.03;100.00;97369.84;5132914;27;20193;-58
2023/08/02 11:23:24;;;;;;;0.10;0.10;;;;;;;16.99;100.00;97363.22;5134467;27;20221;-58
2023/08/02 11:26:14;;;;;;;3.17;2.57;;;;;;;17.00;100.00;97358.69;5134186;27;20559;-58
2023/08/02 11:29:09;;;;;;;3.10;2.80;;;;;;;16.97;100.00;97361.72;5133930;27;20331;-57
2023/08/02 11:31:58;;;;;;;1.17;1.07;;;;;;;17.00;100.00;97362.22;5134463;27;20190;-57
2023/08/02 11:34:44;;;;;;;0.00;0.00;;;;;;;16.95;100.00;97356.56;5132300;27;20342;-58
2023/08/02 11:37:31;;;;;;;0.00;0.00;;;;;;;17.01;100.00;97338.97;5133938;27;20200;-57
2023/08/02 11:40:18;;;;;;;0.00;0.00;;;;;;;17.09;100.00;97329.00;5134343;27;20243;-58
2023/08/02 11:43:15;;;;;;;0.00;0.00;;;;;;;17.17;100.00;97336.91;5133189;27;20251;-58
2023/08/02 11:46:12;;;;;;;0.10;0.10;;;;;;;17.18;100.00;97337.78;5134025;27;20196;-58
2023/08/02 11:49:06;;;;;;;0.00;0.00;;;;;;;17.16;100.00;97331.75;5132125;27;20216;-58
2023/08/02 11:51:53;;;;;;;0.00;0.00;;;;;;;17.11;100.00;97329.66;5133860;27;20320;-58
2023/08/02 11:54:40;;;;;;;0.00;0.00;;;;;;;17.17;100.00;97331.56;5134065;27;20201;-58
2023/08/02 11:57:27;;;;;;;0.00;0.00;;;;;;;17.09;100.00;97328.19;5133875;27;20201;-58
2023/08/02 12:00:17;;;;;;;0.00;0.00;;;;;;;17.16;100.00;97329.91;5133509;27;20189;-58
2023/08/02 12:03:12;;;;;;;0.00;0.00;;;;;;;17.25;100.00;97316.44;5133583;27;20308;-58
2023/08/02 12:06:01;;;;;;;0.00;0.00;;;;;;;17.26;100.00;97324.28;5131549;27;20721;-57
2023/08/02 12:08:53;;;;;;;0.00;0.00;;;;;;;17.37;100.00;97328.31;5133623;27;20197;-58
2023/08/02 12:11:39;;;;;;;0.00;0.00;;;;;;;17.39;100.00;97337.03;5134016;27;20189;-57
2023/08/02 12:14:30;;;;;;;0.00;0.00;;;;;;;17.43;100.00;97325.75;5133505;27;20299;-58
2023/08/02 12:17:19;;;;;;;0.10;0.10;;;;;;;17.48;100.00;97327.06;5133550;27;20189;-58
2023/08/02 12:20:07;;;;;;;0.00;0.00;;;;;;;17.53;100.00;97333.47;5132504;27;20195;-58
2023/08/02 12:22:54;;;;;;;0.00;0.00;;;;;;;17.63;100.00;97309.94;5133281;27;20225;-58
2023/08/02 12:25:47;;;;;;;0.10;0.10;;;;;;;17.80;100.00;97277.59;5133830;28;20243;-58
2023/08/02 12:28:44;;;;;;;0.00;0.00;;;;;;;18.34;100.00;97280.59;5133593;27;20193;-58
2023/08/02 12:31:41;;;;;;;0.00;0.00;;;;;;;18.65;100.00;97290.97;5133690;28;20215;-57
2023/08/02 12:34:30;;;;;;;0.00;0.00;;;;;;;18.34;100.00;97274.41;5132189;27;20221;-57
2023/08/02 12:37:17;;;;;;;0.00;0.00;;;;;;;18.30;100.00;97237.25;5132967;27;20198;-57
2023/08/02 12:40:04;;;;;;;0.00;0.00;;;;;;;18.40;100.00;97263.72;5131814;27;20227;-58
2023/08/02 12:42:51;;;;;;;0.00;0.00;;;;;;;18.40;100.00;97250.31;5132324;27;20228;-57
2023/08/02 12:45:47;;;;;;;0.00;0.00;;;;;;;18.64;100.00;97259.78;5133592;27;20196;-57
2023/08/02 12:48:34;;;;;;;0.00;0.00;;;;;;;18.79;100.00;97251.66;5133444;27;20680;-58
2023/08/02 12:51:23;;;;;;;0.10;0.10;;;;;;;18.83;100.00;97244.88;5133551;27;20204;-57
2023/08/02 12:54:10;;;;;;;0.00;0.00;;;;;;;18.89;100.00;97252.13;5134743;27;20216;-57
2023/08/02 12:56:57;;;;;;;0.00;0.00;;;;;;;18.85;100.00;96792.19;5137416;27;20330;-57
2023/08/02 12:59:44;;;;;;;0.00;0.00;;;;;;;18.96;100.00;96761.22;5137352;27;20328;-57
2023/08/02 13:02:30;;;;;;;0.00;0.00;;;;;;;19.35;100.00;96766.47;5136980;27;20274;-57